Portada
METAR-TAF:

METAR-TAF

Aeroports :

Aeroport Internacional Diori Hamani

Niamey, Níger

latitud: 13-29N, longitud: 002-10E, altitud: 223 m

Observació

L'informe es va fer fa 58 minuts, a les 17:00 UTC
Vent 3 kt amb direcció variable
Temperatura 35°C
Humitat 34%
Pressió 1009 hPa
Visibilitat: 7000 m

METAR: DRRN 191700Z VRB03KT 7000 NSC 35/17 Q1009 NOSIG

Hora: 18:58 (17:58 UTC)

Pronòstic

L'informe es va fer fa 58 minuts, a les 17:00 UTC
Pronòstic vàlid del 19 a les 18 UTC al 20 a les 24 UTC
Vent 8 kt del Oest
Visibilitat 10 km o més
sense núvols per sota de 1500 mi sense presència de cumulonimbus.
Temporalment
l' 19 a les 23 UTC al 20 a les 03 UTC
Vent 20 kt del Est amb ràfegues de 45 kt
Visibilitat: 1200 m
Cel ennuvolat a una alçada de 2000 ft
Núvols disperses a una alçada de 3300 ft, Cumulonimbus.
torb alta de pols, tempesta, pluja

TAF: DRRN 191700Z 1918/2024 28008KT CAVOK TEMPO 1923/2003 08020G45KT 1200 BLDU TSRA BKN020 SCT033CB

Observacions i pronòstics meteorològics de més de 4000 aeroports (METAR i TAF).

Les estacions disponibles són els punts grocs i vermells al mapa.

Posi el ratolí al punt desitjat per veure el nom de l'estació.

Feu clic per veure les observacions i els pronòstics meteorològics.

Per canviar el mapa: feu clic els botons verds amb una creu de color negre per apropar; al botó verd amb un guió per allunyar la imatge; o en les fletxes verdes per a mapes adjacents.


METAR-TAF: